createdAt,value
2019-02-28T09:10:21.030Z,53.30
2019-02-28T09:12:50.077Z,49.80
2019-02-28T09:15:44.558Z,47.60
2019-02-28T09:18:13.235Z,48.20
2019-02-28T09:20:45.102Z,48.50
2019-02-28T09:23:12.881Z,48.40
2019-02-28T09:25:41.677Z,48.00
2019-02-28T09:28:12.975Z,49.20
2019-02-28T09:30:43.242Z,49.00
2019-02-28T09:33:12.162Z,49.80
2019-02-28T09:35:45.264Z,50.60
2019-02-28T09:38:13.556Z,49.90
2019-02-28T09:40:41.449Z,49.90
2019-02-28T09:43:10.128Z,49.70
2019-02-28T09:45:40.002Z,48.90
2019-02-28T09:48:09.295Z,48.30
2019-02-28T09:50:38.228Z,49.10
2019-02-28T09:53:06.904Z,49.90
2019-02-28T09:55:35.708Z,50.70
2019-02-28T09:58:04.393Z,50.10
2019-02-28T10:00:33.188Z,49.90
2019-02-28T10:03:02.103Z,50.40
2019-02-28T10:05:31.266Z,50.10
2019-02-28T10:08:02.901Z,49.50
2019-02-28T10:10:32.142Z,48.20
2019-02-28T10:13:00.914Z,47.20
2019-02-28T10:15:30.789Z,46.20
2019-02-28T10:18:00.642Z,46.00
2019-02-28T10:20:31.753Z,47.10
2019-02-28T10:23:00.561Z,46.80
2019-02-28T10:25:29.237Z,45.50
2019-02-28T10:28:01.165Z,44.30
2019-02-28T10:30:32.068Z,43.60
2019-02-28T10:32:58.645Z,43.20
2019-02-28T10:35:27.574Z,42.50
2019-02-28T10:37:58.415Z,42.00
2019-02-28T10:40:30.576Z,41.60
2019-02-28T10:42:59.131Z,41.50
2019-02-28T10:45:28.179Z,42.30
2019-02-28T10:47:56.975Z,42.30
2019-02-28T10:50:35.972Z,42.70
2019-02-28T10:53:29.658Z,41.40
2019-02-28T10:55:58.913Z,40.90
2019-02-28T10:58:27.457Z,39.30
2019-02-28T11:00:56.384Z,38.00
2019-02-28T11:03:25.299Z,37.40
2019-02-28T11:05:54.483Z,36.00
2019-02-28T11:08:23.505Z,35.70
2019-02-28T11:10:52.307Z,36.50
2019-02-28T11:13:21.832Z,37.20
2019-02-28T11:15:50.748Z,37.70
2019-02-28T11:18:19.792Z,37.60
2019-02-28T11:20:49.313Z,37.90
2019-02-28T11:23:18.236Z,38.70
2019-02-28T11:25:47.277Z,39.30
2019-02-28T11:28:16.198Z,38.40
2019-02-28T11:30:46.081Z,38.50
2019-02-28T11:33:15.964Z,38.80
2019-02-28T11:35:45.051Z,39.90
2019-02-28T11:38:13.682Z,38.60
2019-02-28T11:40:43.950Z,38.50
2019-02-28T11:43:12.844Z,37.80
2019-02-28T11:45:46.821Z,38.10
2019-02-28T11:48:20.156Z,38.00
2019-02-28T11:50:49.093Z,37.20
2019-02-28T11:53:19.141Z,36.80
2019-02-28T11:55:48.140Z,36.00
2019-02-28T11:58:17.950Z,36.10
2019-02-28T12:00:46.701Z,36.20
2019-02-28T12:03:15.629Z,36.60
2019-02-28T12:05:50.176Z,37.10
2019-02-28T12:08:15.627Z,37.00
2019-02-28T12:10:44.307Z,37.20
2019-02-28T12:13:13.108Z,37.60
2019-02-28T12:15:42.639Z,38.40
2019-02-28T12:18:11.308Z,38.80
2019-02-28T12:20:40.590Z,39.10
2019-02-28T12:23:09.395Z,40.00
2019-02-28T12:25:39.514Z,39.30
2019-02-28T12:28:08.798Z,39.00
2019-02-28T12:30:37.622Z,38.80
2019-02-28T12:33:06.290Z,39.00
2019-02-28T12:35:39.964Z,38.90
2019-02-28T12:38:05.923Z,39.00
2019-02-28T12:40:42.451Z,39.30
2019-02-28T12:43:12.287Z,39.60
2019-02-28T12:45:47.359Z,38.40
2019-02-28T12:48:16.660Z,38.30
2019-02-28T12:50:45.532Z,40.40
2019-02-28T12:53:14.213Z,41.90
2019-02-28T12:55:43.014Z,43.30
2019-02-28T12:58:12.293Z,43.40
2019-02-28T13:00:45.297Z,43.10
2019-02-28T13:03:19.185Z,41.80
2019-02-28T13:05:48.189Z,41.20
2019-02-28T13:08:15.543Z,40.20
2019-02-28T13:10:44.582Z,39.00
2019-02-28T13:13:13.505Z,38.80
2019-02-28T13:15:45.382Z,40.50
2019-02-28T13:18:43.641Z,42.90
2019-02-28T13:21:12.667Z,44.50
2019-02-28T13:23:41.481Z,46.10
2019-02-28T13:26:10.636Z,48.00
2019-02-28T13:28:39.432Z,47.50
2019-02-28T13:31:08.504Z,47.30
2019-02-28T13:33:38.118Z,48.30
2019-02-28T13:36:06.920Z,49.60
2019-02-28T13:38:35.842Z,51.00
2019-02-28T13:41:04.765Z,51.60
2019-02-28T13:43:33.689Z,53.00
2019-02-28T13:46:02.486Z,54.00
2019-02-28T13:48:33.906Z,55.20
2019-02-28T13:51:03.280Z,55.90
2019-02-28T13:53:32.270Z,56.70
2019-02-28T13:56:01.175Z,57.50
2019-02-28T13:58:30.094Z,58.10
2019-02-28T14:00:59.011Z,58.80
2019-02-28T14:03:27.947Z,59.30
2019-02-28T14:05:56.974Z,59.20
2019-02-28T14:08:25.779Z,58.90
2019-02-28T14:10:54.662Z,58.60
2019-02-28T14:13:23.143Z,58.60
2019-02-28T14:15:53.121Z,58.60
2019-02-28T14:18:21.946Z,58.70
2019-02-28T14:20:50.984Z,58.50
2019-02-28T14:23:20.838Z,58.60
2019-02-28T14:25:50.633Z,58.70
2019-02-28T14:28:19.671Z,58.70
2019-02-28T14:30:48.112Z,59.00
2019-02-28T14:33:19.353Z,59.70
2019-02-28T14:35:46.807Z,60.30
2019-02-28T14:38:15.598Z,61.00
2019-02-28T14:40:44.398Z,61.20
2019-02-28T14:43:12.958Z,61.40
2019-02-28T14:45:46.086Z,61.50
2019-02-28T14:48:14.647Z,61.70
2019-02-28T14:50:43.686Z,61.40
2019-02-28T14:53:14.281Z,61.20
2019-02-28T14:55:42.970Z,61.10
2019-02-28T14:58:11.778Z,61.50
2019-02-28T15:00:42.399Z,61.40
2019-02-28T15:03:10.824Z,61.10
2019-02-28T15:05:41.179Z,61.30
2019-02-28T15:08:11.995Z,62.00
2019-02-28T15:10:40.463Z,62.60
2019-02-28T15:13:09.262Z,63.50
2019-02-28T15:15:38.069Z,64.20
2019-02-28T15:18:06.507Z,64.40
2019-02-28T15:20:35.186Z,64.40
2019-02-28T15:23:04.109Z,63.90
2019-02-28T15:25:33.156Z,64.10
2019-02-28T15:28:01.953Z,64.60
2019-02-28T15:30:38.796Z,65.70
2019-02-28T15:33:07.716Z,66.70
2019-02-28T15:35:36.159Z,67.40
2019-02-28T15:38:05.842Z,67.00
2019-02-28T15:40:40.675Z,68.30
2019-02-28T15:43:10.127Z,66.80
2019-02-28T15:45:38.819Z,66.10
2019-02-28T15:48:07.490Z,65.60
2019-02-28T15:50:36.284Z,65.50
2019-02-28T15:53:05.087Z,65.00
2019-02-28T15:55:35.097Z,63.90
2019-02-28T15:58:48.051Z,63.20
2019-02-28T16:01:16.851Z,63.20
2019-02-28T16:03:48.439Z,63.40
2019-02-28T16:06:19.685Z,63.40
2019-02-28T16:08:47.674Z,64.20
2019-02-28T16:11:16.379Z,65.20
2019-02-28T16:13:45.660Z,64.90
2019-02-28T16:16:14.701Z,65.20
2019-02-28T16:18:44.051Z,66.00
2019-02-28T16:21:14.228Z,66.40
2019-02-28T16:23:42.907Z,66.30
2019-02-28T16:26:12.306Z,66.20
2019-02-28T16:28:42.650Z,66.20
2019-02-28T16:31:11.590Z,66.20
2019-02-28T16:33:40.273Z,67.10
2019-02-28T16:36:08.956Z,66.90
2019-02-28T16:38:38.020Z,67.10
2019-02-28T16:41:06.796Z,67.50
2019-02-28T16:43:35.841Z,67.70
2019-02-28T16:46:04.520Z,67.60
2019-02-28T16:48:33.480Z,67.70
2019-02-28T16:51:03.807Z,67.30
2019-02-28T16:53:32.605Z,67.00
2019-02-28T16:56:02.575Z,67.10
2019-02-28T16:58:32.150Z,67.30
2019-02-28T17:01:01.172Z,66.90
2019-02-28T17:03:30.261Z,66.50
2019-02-28T17:06:01.720Z,66.40
2019-02-28T17:08:31.173Z,66.60
2019-02-28T17:10:59.615Z,66.90
2019-02-28T17:13:35.561Z,67.30
2019-02-28T17:16:10.059Z,67.70
2019-02-28T17:18:40.418Z,67.60
2019-02-28T17:21:09.490Z,67.40
2019-02-28T17:23:38.229Z,67.70
2019-02-28T17:26:07.185Z,67.90
2019-02-28T17:28:37.789Z,68.00
2019-02-28T17:31:14.270Z,68.20
2019-02-28T17:33:46.927Z,68.30
2019-02-28T17:36:13.922Z,68.20
2019-02-28T17:38:42.714Z,68.20
2019-02-28T17:41:13.435Z,68.00
2019-02-28T17:43:42.241Z,68.10
2019-02-28T17:46:13.922Z,68.40
2019-02-28T17:49:02.040Z,68.00
2019-02-28T17:51:33.974Z,67.80
2019-02-28T17:54:11.282Z,67.70
2019-02-28T17:56:59.527Z,68.10
2019-02-28T17:59:57.249Z,68.30
2019-02-28T18:02:48.729Z,68.50
2019-02-28T18:05:44.651Z,68.60
2019-02-28T18:08:32.274Z,69.40
2019-02-28T18:11:22.937Z,69.80
2019-02-28T18:14:31.199Z,69.70
2019-02-28T18:17:02.775Z,70.20
2019-02-28T18:19:54.296Z,70.20
2019-02-28T18:22:38.420Z,70.50
2019-02-28T18:25:30.022Z,71.10
2019-02-28T18:28:18.933Z,70.80
2019-02-28T18:31:07.947Z,70.70
2019-02-28T18:33:37.474Z,71.00
2019-02-28T18:36:08.341Z,71.00
2019-02-28T18:38:37.355Z,71.20
2019-02-28T18:41:06.582Z,70.50
2019-02-28T18:43:35.316Z,71.10
2019-02-28T18:46:04.376Z,71.40
2019-02-28T18:48:33.284Z,71.60
2019-02-28T18:51:02.087Z,71.80
2019-02-28T18:53:30.763Z,71.60
2019-02-28T18:55:59.804Z,71.80
2019-02-28T18:58:28.606Z,71.80
2019-02-28T19:00:57.406Z,71.80
2019-02-28T19:03:26.327Z,71.90
2019-02-28T19:05:55.014Z,71.70
2019-02-28T19:08:24.051Z,71.40
2019-02-28T19:10:52.854Z,71.70
2019-02-28T19:13:21.540Z,71.70
2019-02-28T19:15:50.336Z,71.70
2019-02-28T19:18:19.018Z,72.00
2019-02-28T19:20:47.701Z,72.10
2019-02-28T19:23:16.740Z,72.50
2019-02-28T19:25:45.543Z,72.70
2019-02-28T19:28:14.237Z,72.90
2019-02-28T19:30:43.033Z,73.20
2019-02-28T19:33:11.705Z,73.20
2019-02-28T19:35:40.762Z,72.80
2019-02-28T19:39:28.397Z,73.20
2019-02-28T19:41:57.200Z,74.60
2019-02-28T19:44:25.999Z,73.90
2019-02-28T19:46:54.923Z,73.60
2019-02-28T19:49:23.719Z,73.80
2019-02-28T19:51:52.639Z,73.70
2019-02-28T19:54:21.442Z,73.60
2019-02-28T19:56:50.364Z,73.80
2019-02-28T19:59:19.166Z,73.60
2019-02-28T20:01:48.207Z,74.00
2019-02-28T20:04:17.247Z,74.00
2019-02-28T20:06:46.169Z,74.20
2019-02-28T20:09:15.093Z,75.00
2019-02-28T20:11:43.774Z,76.70
2019-02-28T20:14:12.698Z,76.50
2019-02-28T20:16:41.618Z,77.10
2019-02-28T20:19:10.417Z,77.80
2019-02-28T20:21:39.227Z,79.50
2019-02-28T20:24:09.340Z,80.20
2019-02-28T20:26:38.022Z,81.70
2019-02-28T20:29:06.830Z,82.20
2019-02-28T20:31:35.510Z,82.40
2019-02-28T20:34:05.033Z,82.10
2019-02-28T20:36:33.828Z,82.20
2019-02-28T20:39:03.233Z,82.90
2019-02-28T20:41:31.674Z,83.20
2019-02-28T20:44:00.359Z,82.30
2019-02-28T20:46:29.046Z,82.30
2019-02-28T20:48:57.957Z,82.00
2019-02-28T20:51:26.994Z,80.90
2019-02-28T20:53:55.919Z,81.40
2019-02-28T20:56:24.719Z,81.80
2019-02-28T20:58:53.777Z,81.40
2019-02-28T21:01:22.568Z,82.00
2019-02-28T21:03:51.731Z,81.90
2019-02-28T21:06:20.408Z,82.30
2019-02-28T21:08:49.329Z,82.20
2019-02-28T21:11:18.414Z,82.30
2019-02-28T21:13:47.293Z,82.20
2019-02-28T21:16:16.214Z,82.30
2019-02-28T21:18:44.895Z,82.60
2019-02-28T21:21:13.699Z,82.60
2019-02-28T21:23:42.738Z,82.30
2019-02-28T21:26:11.180Z,82.50
2019-02-28T21:28:40.100Z,82.40
2019-02-28T21:31:08.543Z,81.90
2019-02-28T21:33:37.237Z,81.70
2019-02-28T21:36:05.920Z,81.80
2019-02-28T21:38:34.589Z,81.90
2019-02-28T21:41:03.510Z,82.00
2019-02-28T21:43:32.198Z,81.90
2019-02-28T21:46:00.993Z,81.40
2019-02-28T21:48:29.915Z,82.30
2019-02-28T21:50:59.078Z,82.90
2019-02-28T21:53:28.001Z,82.70
2019-02-28T21:55:57.158Z,82.60
2019-02-28T21:58:25.721Z,82.20
2019-02-28T22:00:54.646Z,82.60
2019-02-28T22:03:23.483Z,82.50
2019-02-28T22:05:52.244Z,82.50
2019-02-28T22:08:21.199Z,82.20
2019-02-28T22:10:49.969Z,82.10
2019-02-28T22:13:18.654Z,82.20
2019-02-28T22:15:47.329Z,82.30
2019-02-28T22:18:16.388Z,82.60
2019-02-28T22:20:44.815Z,82.60
2019-02-28T22:23:13.743Z,83.00
2019-02-28T22:25:42.418Z,83.00
2019-02-28T22:28:11.100Z,83.60
2019-02-28T22:30:44.349Z,83.70
2019-02-28T22:33:17.826Z,83.50
2019-02-28T22:35:51.192Z,83.70
2019-02-28T22:38:20.106Z,83.60
2019-02-28T22:40:48.799Z,83.70
2019-02-28T22:43:17.233Z,83.50
2019-02-28T22:45:45.810Z,83.20
2019-02-28T22:48:14.836Z,83.50
2019-02-28T22:50:43.275Z,83.30
2019-02-28T22:53:11.839Z,83.10
2019-02-28T22:55:40.883Z,83.50
2019-02-28T22:58:12.318Z,83.90
2019-02-28T23:01:00.805Z,84.10
2019-02-28T23:03:31.046Z,83.70
2019-02-28T23:05:59.966Z,83.70
2019-02-28T23:08:28.645Z,84.60
2019-02-28T23:10:57.718Z,85.10
2019-02-28T23:13:26.255Z,85.60
2019-02-28T23:15:55.169Z,84.90
2019-02-28T23:18:23.618Z,85.30
2019-02-28T23:20:52.055Z,85.20
2019-02-28T23:23:20.864Z,85.30
2019-02-28T23:25:49.295Z,85.60
2019-02-28T23:28:25.777Z,85.40
2019-02-28T23:31:15.702Z,85.30
2019-02-28T23:33:44.630Z,85.40
2019-02-28T23:36:13.422Z,85.70
2019-02-28T23:38:42.704Z,86.10
2019-02-28T23:41:11.627Z,86.20
2019-02-28T23:43:40.189Z,86.20
2019-02-28T23:46:08.989Z,86.40
2019-02-28T23:48:37.793Z,86.10
2019-02-28T23:51:06.719Z,86.30
2019-02-28T23:53:35.637Z,86.60
2019-02-28T23:56:04.317Z,86.30
2019-02-28T23:58:33.011Z,86.10
